MXY720 KPVD-KCHS
Flight info
| Callsign | MXY720 |
|---|---|
| Flight time | 2h 10m |
| Altitude | 38000 |
| Route | JUMPR RIFLE HEADI Q97 SAWED DFENC Q109 JOHAR AMYLU AMYLU3 |
| Aircraft | E190/M-SDE3GILORVW/S |
Departure
| Time | 2026-05-09 12:21 |
|---|---|
| Airport | Rhode Island T. F. Green International Airport (KPVD) |
Arrival
| Time | 2026-05-09 14:32 |
|---|---|
| Airport | Charleston International Airport (KCHS) |
| Time | Latitude | Longitude | Altitude | Speed | Heading |
|---|---|---|---|---|---|
| 2026-05-09 11:56 | 41.72506 | -71.43520 | 65 ft | 0 kts | 301° |
| 2026-05-09 12:10 | 41.72474 | -71.43464 | 60 ft | 3 kts | 325° |
| 2026-05-09 12:10 | 41.72457 | -71.43452 | 57 ft | 3 kts | 358° |
| 2026-05-09 12:10 | 41.72445 | -71.43453 | 60 ft | 1 kts | 32° |
| 2026-05-09 12:13 | 41.72453 | -71.43447 | 58 ft | 5 kts | 32° |
| 2026-05-09 12:14 | 41.72478 | -71.43426 | 60 ft | 4 kts | 32° |
| 2026-05-09 12:14 | 41.72494 | -71.43412 | 64 ft | 1 kts | 32° |
| 2026-05-09 12:14 | 41.72503 | -71.43405 | 64 ft | 2 kts | 32° |
| 2026-05-09 12:14 | 41.72510 | -71.43399 | 58 ft | 2 kts | 32° |
| 2026-05-09 12:15 | 41.72556 | -71.43361 | 62 ft | 11 kts | 31° |
| 2026-05-09 12:15 | 41.72625 | -71.43304 | 57 ft | 12 kts | 32° |
| 2026-05-09 12:15 | 41.72700 | -71.43240 | 65 ft | 13 kts | 33° |
| 2026-05-09 12:15 | 41.72778 | -71.43173 | 62 ft | 14 kts | 32° |
| 2026-05-09 12:16 | 41.72865 | -71.43101 | 63 ft | 16 kts | 32° |
| 2026-05-09 12:16 | 41.72923 | -71.42980 | 62 ft | 16 kts | 87° |
| 2026-05-09 12:16 | 41.72926 | -71.42824 | 60 ft | 18 kts | 88° |
| 2026-05-09 12:16 | 41.72936 | -71.42676 | 54 ft | 18 kts | 86° |
| 2026-05-09 12:17 | 41.72944 | -71.42504 | 49 ft | 20 kts | 86° |
| 2026-05-09 12:17 | 41.72964 | -71.42343 | 56 ft | 16 kts | 51° |
| 2026-05-09 12:17 | 41.73052 | -71.42269 | 57 ft | 11 kts | 31° |
| 2026-05-09 12:17 | 41.73077 | -71.42231 | 58 ft | 2 kts | 69° |
| 2026-05-09 12:18 | 41.73077 | -71.42210 | 58 ft | 2 kts | 94° |
| 2026-05-09 12:18 | 41.73077 | -71.42209 | 58 ft | 0 kts | 95° |
| 2026-05-09 12:18 | 41.73070 | -71.42185 | 54 ft | 7 kts | 116° |
| 2026-05-09 12:18 | 41.73022 | -71.42123 | 56 ft | 12 kts | 181° |
| 2026-05-09 12:19 | 41.73000 | -71.42137 | 55 ft | 0 kts | 213° |
| 2026-05-09 12:20 | 41.72994 | -71.42142 | 52 ft | 3 kts | 214° |
| 2026-05-09 12:20 | 41.72788 | -71.42317 | 50 ft | 75 kts | 212° |
| 2026-05-09 12:20 | 41.72126 | -71.42868 | 52 ft | 147 kts | 212° |
| 2026-05-09 12:21 | 41.71140 | -71.43681 | 445 ft | 179 kts | 210° |
| 2026-05-09 12:21 | 41.69988 | -71.44515 | 1187 ft | 201 kts | 198° |
| 2026-05-09 12:21 | 41.68657 | -71.44471 | 2197 ft | 194 kts | 163° |
| 2026-05-09 12:21 | 41.67393 | -71.43858 | 2829 ft | 200 kts | 164° |
| 2026-05-09 12:22 | 41.66038 | -71.43285 | 3442 ft | 207 kts | 167° |
| 2026-05-09 12:22 | 41.64670 | -71.42738 | 4059 ft | 210 kts | 169° |
| 2026-05-09 12:22 | 41.63251 | -71.42189 | 4697 ft | 213 kts | 171° |
| 2026-05-09 12:22 | 41.61816 | -71.41644 | 5336 ft | 215 kts | 172° |
| 2026-05-09 12:23 | 41.60378 | -71.41108 | 5967 ft | 215 kts | 173° |
| 2026-05-09 12:23 | 41.58934 | -71.40576 | 6587 ft | 216 kts | 173° |
| 2026-05-09 12:23 | 41.57474 | -71.40042 | 7147 ft | 218 kts | 174° |
| 2026-05-09 12:23 | 41.56056 | -71.39521 | 7628 ft | 220 kts | 174° |
| 2026-05-09 12:24 | 41.54599 | -71.38983 | 8121 ft | 222 kts | 174° |
| 2026-05-09 12:24 | 41.53100 | -71.38428 | 8598 ft | 225 kts | 174° |
| 2026-05-09 12:24 | 41.51584 | -71.37869 | 9112 ft | 227 kts | 174° |
| 2026-05-09 12:24 | 41.50053 | -71.37304 | 9661 ft | 230 kts | 174° |
| 2026-05-09 12:25 | 41.48503 | -71.36735 | 10180 ft | 233 kts | 174° |
| 2026-05-09 12:25 | 41.46924 | -71.36146 | 10607 ft | 237 kts | 173° |
| 2026-05-09 12:25 | 41.45330 | -71.35551 | 11053 ft | 241 kts | 173° |
| 2026-05-09 12:25 | 41.43726 | -71.34948 | 11499 ft | 244 kts | 173° |
| 2026-05-09 12:26 | 41.42081 | -71.34330 | 11971 ft | 247 kts | 173° |
| 2026-05-09 12:26 | 41.40415 | -71.33704 | 12449 ft | 250 kts | 173° |
| 2026-05-09 12:26 | 41.38728 | -71.33068 | 12933 ft | 254 kts | 172° |
| 2026-05-09 12:26 | 41.37027 | -71.32426 | 13405 ft | 257 kts | 172° |
| 2026-05-09 12:27 | 41.35295 | -71.31768 | 13898 ft | 261 kts | 172° |
| 2026-05-09 12:27 | 41.33543 | -71.31103 | 14375 ft | 262 kts | 173° |
| 2026-05-09 12:27 | 41.31792 | -71.30437 | 14863 ft | 264 kts | 173° |
| 2026-05-09 12:27 | 41.30616 | -71.29989 | 15194 ft | 265 kts | 173° |
| 2026-05-09 12:28 | 41.28815 | -71.29300 | 15687 ft | 266 kts | 174° |
| 2026-05-09 12:28 | 41.27028 | -71.28615 | 16164 ft | 268 kts | 174° |
| 2026-05-09 12:28 | 41.25233 | -71.27925 | 16650 ft | 270 kts | 174° |
| 2026-05-09 12:28 | 41.23446 | -71.27236 | 17115 ft | 272 kts | 175° |
| 2026-05-09 12:29 | 41.21624 | -71.26531 | 17598 ft | 273 kts | 175° |
| 2026-05-09 12:29 | 41.19788 | -71.26080 | 18102 ft | 262 kts | 191° |
| 2026-05-09 12:29 | 41.18048 | -71.26394 | 18631 ft | 247 kts | 207° |
| 2026-05-09 12:29 | 41.16496 | -71.27240 | 18938 ft | 242 kts | 220° |
| 2026-05-09 12:30 | 41.15171 | -71.28647 | 18959 ft | 248 kts | 234° |
| 2026-05-09 12:30 | 41.14151 | -71.30521 | 18999 ft | 255 kts | 247° |
| 2026-05-09 12:30 | 41.12550 | -71.34939 | 19092 ft | 276 kts | 249° |
| 2026-05-09 12:31 | 41.11722 | -71.37256 | 19128 ft | 285 kts | 249° |
| 2026-05-09 12:31 | 41.09997 | -71.42148 | 19179 ft | 300 kts | 249° |
| 2026-05-09 12:31 | 41.09116 | -71.44665 | 19178 ft | 305 kts | 248° |
| 2026-05-09 12:32 | 41.08216 | -71.47239 | 19192 ft | 310 kts | 249° |
| 2026-05-09 12:32 | 41.07308 | -71.49807 | 19495 ft | 305 kts | 248° |
| 2026-05-09 12:32 | 41.06398 | -71.52380 | 19497 ft | 311 kts | 249° |
| 2026-05-09 12:32 | 41.05480 | -71.55000 | 19497 ft | 315 kts | 248° |
| 2026-05-09 12:33 | 41.04554 | -71.57650 | 19512 ft | 319 kts | 248° |
| 2026-05-09 12:33 | 41.03619 | -71.60317 | 19523 ft | 321 kts | 248° |
| 2026-05-09 12:33 | 41.02675 | -71.63010 | 19744 ft | 316 kts | 248° |
| 2026-05-09 12:33 | 41.01739 | -71.65640 | 19821 ft | 317 kts | 248° |
| 2026-05-09 12:34 | 41.00806 | -71.68301 | 19830 ft | 320 kts | 248° |
| 2026-05-09 12:34 | 40.99866 | -71.70976 | 19825 ft | 322 kts | 248° |
| 2026-05-09 12:34 | 40.98921 | -71.73671 | 19831 ft | 323 kts | 248° |
| 2026-05-09 12:34 | 40.97973 | -71.76375 | 19833 ft | 324 kts | 248° |
| 2026-05-09 12:35 | 40.97023 | -71.79086 | 19833 ft | 325 kts | 248° |
| 2026-05-09 12:35 | 40.96070 | -71.81803 | 19836 ft | 326 kts | 248° |
| 2026-05-09 12:35 | 40.95129 | -71.84483 | 20027 ft | 317 kts | 248° |
| 2026-05-09 12:35 | 40.94192 | -71.87050 | 20518 ft | 308 kts | 248° |
| 2026-05-09 12:36 | 40.93274 | -71.89591 | 20818 ft | 303 kts | 248° |
| 2026-05-09 12:36 | 40.92374 | -71.92088 | 21173 ft | 298 kts | 248° |
| 2026-05-09 12:36 | 40.91491 | -71.94524 | 21539 ft | 292 kts | 248° |
| 2026-05-09 12:36 | 40.90647 | -71.96834 | 21938 ft | 286 kts | 248° |
| 2026-05-09 12:37 | 40.89803 | -71.99166 | 22357 ft | 279 kts | 249° |
| 2026-05-09 12:37 | 40.88982 | -72.01445 | 22822 ft | 272 kts | 249° |
| 2026-05-09 12:37 | 40.88170 | -72.03670 | 23318 ft | 265 kts | 249° |
| 2026-05-09 12:37 | 40.87383 | -72.05830 | 23815 ft | 258 kts | 249° |
| 2026-05-09 12:38 | 40.86617 | -72.07923 | 24277 ft | 251 kts | 249° |
| 2026-05-09 12:38 | 40.85865 | -72.09966 | 24763 ft | 243 kts | 250° |
| 2026-05-09 12:38 | 40.85143 | -72.11956 | 25167 ft | 240 kts | 250° |
| 2026-05-09 12:38 | 40.84434 | -72.13912 | 25492 ft | 239 kts | 250° |
| 2026-05-09 12:39 | 40.83722 | -72.15892 | 25773 ft | 239 kts | 250° |
| 2026-05-09 12:39 | 40.83015 | -72.17871 | 26030 ft | 240 kts | 250° |
| 2026-05-09 12:39 | 40.82326 | -72.19805 | 26263 ft | 241 kts | 250° |
| 2026-05-09 12:39 | 40.81616 | -72.21812 | 26511 ft | 242 kts | 250° |
| 2026-05-09 12:40 | 40.80906 | -72.23827 | 26746 ft | 242 kts | 250° |
| 2026-05-09 12:40 | 40.80192 | -72.25869 | 26875 ft | 246 kts | 250° |
| 2026-05-09 12:40 | 40.79469 | -72.27920 | 27095 ft | 247 kts | 250° |
| 2026-05-09 12:40 | 40.78747 | -72.29987 | 27313 ft | 248 kts | 250° |
| 2026-05-09 12:41 | 40.78021 | -72.32058 | 27526 ft | 249 kts | 250° |
| 2026-05-09 12:41 | 40.77292 | -72.34139 | 27731 ft | 250 kts | 250° |
| 2026-05-09 12:41 | 40.76563 | -72.36230 | 27941 ft | 251 kts | 250° |
| 2026-05-09 12:41 | 40.75833 | -72.38327 | 28071 ft | 254 kts | 250° |
| 2026-05-09 12:42 | 40.75092 | -72.40472 | 28134 ft | 259 kts | 250° |
| 2026-05-09 12:42 | 40.74339 | -72.42639 | 28276 ft | 261 kts | 250° |
| 2026-05-09 12:42 | 40.73583 | -72.44819 | 28441 ft | 262 kts | 250° |
| 2026-05-09 12:42 | 40.72825 | -72.47006 | 28619 ft | 263 kts | 250° |
| 2026-05-09 12:43 | 40.72077 | -72.49167 | 28780 ft | 263 kts | 250° |
| 2026-05-09 12:43 | 40.71315 | -72.51368 | 28948 ft | 264 kts | 250° |
| 2026-05-09 12:43 | 40.70556 | -72.53572 | 29108 ft | 265 kts | 250° |
| 2026-05-09 12:43 | 40.69794 | -72.55778 | 29310 ft | 264 kts | 250° |
| 2026-05-09 12:44 | 40.68945 | -72.57931 | 29499 ft | 267 kts | 243° |
| 2026-05-09 12:44 | 40.67799 | -72.59878 | 29684 ft | 270 kts | 238° |
| 2026-05-09 12:44 | 40.66623 | -72.61802 | 29933 ft | 268 kts | 238° |
| 2026-05-09 12:44 | 40.65451 | -72.63714 | 30028 ft | 270 kts | 237° |
| 2026-05-09 12:45 | 40.64265 | -72.65633 | 30169 ft | 270 kts | 237° |
| 2026-05-09 12:45 | 40.63079 | -72.67550 | 30306 ft | 270 kts | 237° |
| 2026-05-09 12:45 | 40.61890 | -72.69462 | 30452 ft | 270 kts | 237° |
| 2026-05-09 12:45 | 40.60704 | -72.71369 | 30600 ft | 269 kts | 237° |
| 2026-05-09 12:46 | 40.59519 | -72.73271 | 30746 ft | 268 kts | 237° |
| 2026-05-09 12:46 | 40.58335 | -72.75168 | 30906 ft | 268 kts | 237° |
| 2026-05-09 12:46 | 40.57154 | -72.77061 | 31056 ft | 267 kts | 237° |
| 2026-05-09 12:46 | 40.55974 | -72.78946 | 31185 ft | 267 kts | 237° |
| 2026-05-09 12:47 | 40.54797 | -72.80829 | 31324 ft | 266 kts | 237° |
| 2026-05-09 12:47 | 40.53626 | -72.82699 | 31431 ft | 266 kts | 237° |
| 2026-05-09 12:47 | 40.52450 | -72.84574 | 31548 ft | 266 kts | 237° |
| 2026-05-09 12:47 | 40.51280 | -72.86442 | 31655 ft | 265 kts | 237° |
| 2026-05-09 12:48 | 40.50104 | -72.88314 | 31770 ft | 265 kts | 237° |
| 2026-05-09 12:48 | 40.48934 | -72.90179 | 31845 ft | 265 kts | 237° |
| 2026-05-09 12:48 | 40.47757 | -72.92050 | 31937 ft | 265 kts | 237° |
| 2026-05-09 12:48 | 40.46583 | -72.93919 | 32036 ft | 265 kts | 237° |
| 2026-05-09 12:49 | 40.45408 | -72.95785 | 32144 ft | 265 kts | 237° |
| 2026-05-09 12:49 | 40.44236 | -72.97647 | 32245 ft | 264 kts | 237° |
| 2026-05-09 12:49 | 40.43087 | -72.99469 | 32335 ft | 264 kts | 237° |
| 2026-05-09 12:49 | 40.41918 | -73.01324 | 32424 ft | 263 kts | 237° |
| 2026-05-09 12:50 | 40.40752 | -73.03172 | 32501 ft | 264 kts | 237° |
| 2026-05-09 12:50 | 40.39577 | -73.05035 | 32515 ft | 268 kts | 237° |
| 2026-05-09 12:50 | 40.38366 | -73.06956 | 32422 ft | 280 kts | 237° |
| 2026-05-09 12:50 | 40.37099 | -73.08960 | 32385 ft | 291 kts | 237° |
| 2026-05-09 12:51 | 40.35790 | -73.11032 | 32389 ft | 300 kts | 236° |
| 2026-05-09 12:51 | 40.33073 | -73.15322 | 32505 ft | 316 kts | 236° |
| 2026-05-09 12:52 | 40.30193 | -73.19866 | 32613 ft | 332 kts | 236° |
| 2026-05-09 12:52 | 40.27176 | -73.24615 | 32690 ft | 347 kts | 236° |
| 2026-05-09 12:53 | 40.24018 | -73.29581 | 32765 ft | 362 kts | 235° |
| 2026-05-09 12:53 | 40.20738 | -73.34731 | 32844 ft | 375 kts | 235° |
| 2026-05-09 12:54 | 40.17340 | -73.40057 | 32885 ft | 387 kts | 235° |
| 2026-05-09 12:54 | 40.13838 | -73.45537 | 32959 ft | 397 kts | 235° |
| 2026-05-09 12:55 | 40.10255 | -73.51138 | 32989 ft | 406 kts | 234° |
| 2026-05-09 12:55 | 40.06610 | -73.56820 | 33009 ft | 400 kts | 234° |
| 2026-05-09 12:56 | 40.03067 | -73.62328 | 33047 ft | 391 kts | 234° |
| 2026-05-09 12:56 | 39.99633 | -73.67660 | 33274 ft | 381 kts | 234° |
| 2026-05-09 12:56 | 39.97927 | -73.70280 | 33565 ft | 372 kts | 231° |
| 2026-05-09 12:57 | 39.95995 | -73.72434 | 34097 ft | 374 kts | 221° |
| 2026-05-09 12:57 | 39.91162 | -73.75304 | 34072 ft | 384 kts | 211° |
| 2026-05-09 12:58 | 39.86226 | -73.77963 | 34073 ft | 384 kts | 211° |
| 2026-05-09 12:58 | 39.81304 | -73.80598 | 34073 ft | 384 kts | 211° |
| 2026-05-09 12:59 | 39.77001 | -73.84181 | 34042 ft | 359 kts | 238° |
| 2026-05-09 12:59 | 39.74204 | -73.89430 | 34088 ft | 354 kts | 233° |
| 2026-05-09 12:59 | 39.72441 | -73.91609 | 34741 ft | 350 kts | 225° |
| 2026-05-09 13:00 | 39.70504 | -73.93508 | 35133 ft | 348 kts | 224° |
| 2026-05-09 13:00 | 39.68566 | -73.95352 | 35531 ft | 343 kts | 224° |
| 2026-05-09 13:00 | 39.66644 | -73.97174 | 35834 ft | 341 kts | 224° |
| 2026-05-09 13:00 | 39.64731 | -73.98984 | 36105 ft | 340 kts | 224° |
| 2026-05-09 13:01 | 39.62820 | -74.00789 | 36330 ft | 340 kts | 224° |
| 2026-05-09 13:01 | 39.60895 | -74.02610 | 36462 ft | 343 kts | 224° |
| 2026-05-09 13:01 | 39.58968 | -74.04428 | 36618 ft | 344 kts | 224° |
| 2026-05-09 13:01 | 39.57028 | -74.06258 | 36745 ft | 346 kts | 224° |
| 2026-05-09 13:02 | 39.55075 | -74.08097 | 36833 ft | 349 kts | 224° |
| 2026-05-09 13:02 | 39.51113 | -74.11827 | 37008 ft | 355 kts | 224° |
| 2026-05-09 13:02 | 39.49107 | -74.13709 | 37145 ft | 356 kts | 224° |
| 2026-05-09 13:03 | 39.47093 | -74.15595 | 37269 ft | 358 kts | 224° |
| 2026-05-09 13:03 | 39.45071 | -74.17489 | 37396 ft | 360 kts | 224° |
| 2026-05-09 13:03 | 39.43041 | -74.19389 | 37523 ft | 361 kts | 224° |
| 2026-05-09 13:03 | 39.41000 | -74.21296 | 37670 ft | 362 kts | 223° |
| 2026-05-09 13:04 | 39.38986 | -74.23177 | 37762 ft | 363 kts | 224° |
| 2026-05-09 13:04 | 39.36953 | -74.25068 | 38124 ft | 357 kts | 223° |
| 2026-05-09 13:04 | 39.34927 | -74.26959 | 38093 ft | 361 kts | 224° |
| 2026-05-09 13:05 | 39.30813 | -74.30811 | 38107 ft | 369 kts | 223° |
| 2026-05-09 13:05 | 39.26618 | -74.34728 | 38132 ft | 376 kts | 223° |
| 2026-05-09 13:06 | 39.22320 | -74.38741 | 38031 ft | 386 kts | 223° |
| 2026-05-09 13:06 | 39.17943 | -74.42820 | 38033 ft | 390 kts | 223° |
| 2026-05-09 13:07 | 39.13524 | -74.46927 | 38018 ft | 392 kts | 223° |
| 2026-05-09 13:07 | 39.09082 | -74.51046 | 38004 ft | 394 kts | 223° |
| 2026-05-09 13:08 | 39.04662 | -74.55141 | 38004 ft | 394 kts | 223° |
| 2026-05-09 13:08 | 39.00178 | -74.59288 | 38009 ft | 394 kts | 223° |
| 2026-05-09 13:09 | 38.95734 | -74.63394 | 38033 ft | 392 kts | 223° |
| 2026-05-09 13:09 | 38.91332 | -74.67454 | 38006 ft | 392 kts | 223° |
| 2026-05-09 13:10 | 38.86895 | -74.71542 | 37996 ft | 393 kts | 223° |
| 2026-05-09 13:10 | 38.82495 | -74.75589 | 38025 ft | 392 kts | 223° |
| 2026-05-09 13:11 | 38.78067 | -74.79654 | 38020 ft | 391 kts | 224° |
| 2026-05-09 13:11 | 38.73656 | -74.83700 | 38033 ft | 389 kts | 224° |
| 2026-05-09 13:12 | 38.69249 | -74.87735 | 37997 ft | 390 kts | 224° |
| 2026-05-09 13:12 | 38.64840 | -74.91769 | 38022 ft | 390 kts | 224° |
| 2026-05-09 13:13 | 38.60464 | -74.95767 | 38024 ft | 390 kts | 224° |
| 2026-05-09 13:13 | 38.56088 | -74.99759 | 38043 ft | 388 kts | 224° |
| 2026-05-09 13:14 | 38.51678 | -75.03769 | 38013 ft | 389 kts | 224° |
| 2026-05-09 13:16 | 38.34038 | -75.19760 | 37979 ft | 386 kts | 224° |
| 2026-05-09 13:16 | 38.29694 | -75.23678 | 37988 ft | 385 kts | 224° |
| 2026-05-09 13:17 | 38.25368 | -75.27592 | 38060 ft | 383 kts | 224° |
| 2026-05-09 13:17 | 38.21029 | -75.31505 | 38022 ft | 383 kts | 224° |
| 2026-05-09 13:18 | 38.16697 | -75.35401 | 37956 ft | 383 kts | 224° |
| 2026-05-09 13:18 | 38.12362 | -75.39288 | 38041 ft | 381 kts | 224° |
| 2026-05-09 13:19 | 38.08036 | -75.43171 | 38049 ft | 380 kts | 224° |
| 2026-05-09 13:19 | 38.03674 | -75.47083 | 37998 ft | 386 kts | 224° |
| 2026-05-09 13:20 | 37.99267 | -75.51026 | 38012 ft | 389 kts | 224° |
| 2026-05-09 13:20 | 37.95610 | -75.54292 | 38018 ft | 385 kts | 224° |
| 2026-05-09 13:21 | 37.91266 | -75.58155 | 37983 ft | 386 kts | 224° |
| 2026-05-09 13:21 | 37.86904 | -75.62036 | 38061 ft | 382 kts | 224° |
| 2026-05-09 13:22 | 37.81819 | -75.66565 | 38042 ft | 382 kts | 224° |
| 2026-05-09 13:22 | 37.78201 | -75.69771 | 37993 ft | 383 kts | 224° |
| 2026-05-09 13:23 | 37.67409 | -75.79324 | 37991 ft | 380 kts | 225° |
| 2026-05-09 13:24 | 37.63080 | -75.83158 | 38022 ft | 381 kts | 224° |
| 2026-05-09 13:24 | 37.58734 | -75.86988 | 38042 ft | 381 kts | 224° |
| 2026-05-09 13:25 | 37.54374 | -75.90821 | 38016 ft | 382 kts | 224° |
| 2026-05-09 13:26 | 37.47830 | -75.96576 | 38012 ft | 383 kts | 224° |
| 2026-05-09 13:26 | 37.43454 | -76.00412 | 38040 ft | 383 kts | 224° |
| 2026-05-09 13:27 | 37.39074 | -76.04248 | 38038 ft | 384 kts | 224° |
| 2026-05-09 13:27 | 37.34703 | -76.08080 | 38082 ft | 379 kts | 225° |
| 2026-05-09 13:28 | 37.30368 | -76.11867 | 38004 ft | 379 kts | 225° |
| 2026-05-09 13:28 | 37.26049 | -76.15639 | 37976 ft | 380 kts | 225° |
| 2026-05-09 13:29 | 37.21732 | -76.19398 | 38063 ft | 377 kts | 224° |
| 2026-05-09 13:29 | 37.17488 | -76.23052 | 37991 ft | 378 kts | 224° |
| 2026-05-09 13:30 | 37.13205 | -76.26772 | 38062 ft | 374 kts | 225° |
| 2026-05-09 13:30 | 37.08926 | -76.30509 | 38021 ft | 374 kts | 225° |
| 2026-05-09 13:31 | 37.04646 | -76.34222 | 37978 ft | 375 kts | 225° |
| 2026-05-09 13:31 | 37.00370 | -76.37935 | 38021 ft | 375 kts | 225° |
| 2026-05-09 13:32 | 36.96068 | -76.41656 | 38073 ft | 375 kts | 225° |
| 2026-05-09 13:32 | 36.89633 | -76.47209 | 38057 ft | 374 kts | 225° |
| 2026-05-09 13:33 | 36.85347 | -76.50898 | 38028 ft | 375 kts | 226° |
| 2026-05-09 13:33 | 36.81043 | -76.54592 | 38025 ft | 376 kts | 226° |
| 2026-05-09 13:34 | 36.76739 | -76.58297 | 38035 ft | 376 kts | 226° |
| 2026-05-09 13:34 | 36.72446 | -76.61972 | 38030 ft | 377 kts | 225° |
| 2026-05-09 13:35 | 36.68135 | -76.65667 | 38048 ft | 375 kts | 226° |
| 2026-05-09 13:35 | 36.63833 | -76.69347 | 37993 ft | 376 kts | 226° |
| 2026-05-09 13:36 | 36.59534 | -76.73020 | 38032 ft | 375 kts | 226° |
| 2026-05-09 13:36 | 36.55229 | -76.76695 | 38039 ft | 375 kts | 226° |
| 2026-05-09 13:37 | 36.50928 | -76.80363 | 37994 ft | 376 kts | 226° |
| 2026-05-09 13:37 | 36.46612 | -76.84031 | 37991 ft | 376 kts | 226° |
| 2026-05-09 13:38 | 36.42278 | -76.87709 | 37958 ft | 381 kts | 226° |
| 2026-05-09 13:38 | 36.37926 | -76.91390 | 38082 ft | 378 kts | 226° |
| 2026-05-09 13:39 | 36.33581 | -76.95054 | 37999 ft | 380 kts | 226° |
| 2026-05-09 13:39 | 36.29224 | -76.98741 | 38011 ft | 380 kts | 226° |
| 2026-05-09 13:40 | 36.24869 | -77.02420 | 37984 ft | 380 kts | 226° |
| 2026-05-09 13:40 | 36.20484 | -77.06121 | 38000 ft | 384 kts | 226° |
| 2026-05-09 13:41 | 36.16055 | -77.09848 | 38049 ft | 385 kts | 226° |
| 2026-05-09 13:41 | 36.11619 | -77.13584 | 38027 ft | 385 kts | 226° |
| 2026-05-09 13:42 | 36.07180 | -77.17301 | 37991 ft | 385 kts | 226° |
| 2026-05-09 13:42 | 36.02772 | -77.20998 | 37968 ft | 383 kts | 227° |
| 2026-05-09 13:43 | 35.98396 | -77.24667 | 38044 ft | 380 kts | 227° |
| 2026-05-09 13:43 | 35.94019 | -77.28332 | 38045 ft | 380 kts | 227° |
| 2026-05-09 13:44 | 35.89641 | -77.31987 | 38012 ft | 381 kts | 227° |
| 2026-05-09 13:44 | 35.85266 | -77.35604 | 38023 ft | 382 kts | 226° |
| 2026-05-09 13:45 | 35.80868 | -77.39262 | 38008 ft | 381 kts | 227° |
| 2026-05-09 13:45 | 35.76487 | -77.42908 | 38041 ft | 380 kts | 227° |
| 2026-05-09 13:46 | 35.72094 | -77.46555 | 38016 ft | 381 kts | 227° |
| 2026-05-09 13:46 | 35.67709 | -77.50219 | 38008 ft | 382 kts | 227° |
| 2026-05-09 13:47 | 35.63310 | -77.53870 | 38025 ft | 382 kts | 227° |
| 2026-05-09 13:47 | 35.58887 | -77.57510 | 38071 ft | 380 kts | 227° |
| 2026-05-09 13:48 | 35.54504 | -77.61136 | 37987 ft | 379 kts | 228° |
| 2026-05-09 13:48 | 35.50129 | -77.64734 | 38025 ft | 379 kts | 227° |
| 2026-05-09 13:49 | 35.45814 | -77.68280 | 38063 ft | 377 kts | 227° |
| 2026-05-09 13:49 | 35.41445 | -77.71874 | 38023 ft | 379 kts | 227° |
| 2026-05-09 13:50 | 35.37075 | -77.75473 | 38031 ft | 380 kts | 227° |
| 2026-05-09 13:50 | 35.32694 | -77.79063 | 38048 ft | 379 kts | 227° |
| 2026-05-09 13:51 | 35.28316 | -77.82676 | 38027 ft | 379 kts | 227° |
| 2026-05-09 13:51 | 35.23920 | -77.86267 | 38005 ft | 380 kts | 227° |
| 2026-05-09 13:52 | 35.19519 | -77.89844 | 38030 ft | 380 kts | 227° |
| 2026-05-09 13:52 | 35.15141 | -77.93446 | 38058 ft | 379 kts | 227° |
| 2026-05-09 13:53 | 35.10782 | -77.97020 | 38067 ft | 376 kts | 228° |
| 2026-05-09 13:53 | 35.06411 | -78.00565 | 38034 ft | 377 kts | 227° |
| 2026-05-09 13:54 | 35.02032 | -78.04109 | 38055 ft | 378 kts | 227° |
| 2026-05-09 13:54 | 34.97637 | -78.07671 | 38066 ft | 379 kts | 227° |
| 2026-05-09 13:55 | 34.93270 | -78.11218 | 38028 ft | 380 kts | 227° |
| 2026-05-09 13:55 | 34.88881 | -78.14767 | 37993 ft | 379 kts | 228° |
| 2026-05-09 13:56 | 34.84500 | -78.18306 | 38045 ft | 378 kts | 228° |
| 2026-05-09 13:56 | 34.80114 | -78.21839 | 38047 ft | 377 kts | 228° |
| 2026-05-09 13:57 | 34.77926 | -78.23620 | 37780 ft | 379 kts | 228° |
| 2026-05-09 13:57 | 34.75764 | -78.25351 | 37569 ft | 367 kts | 227° |
| 2026-05-09 13:57 | 34.73645 | -78.27051 | 37208 ft | 360 kts | 228° |
| 2026-05-09 13:57 | 34.71565 | -78.28740 | 36681 ft | 358 kts | 227° |
| 2026-05-09 13:58 | 34.69500 | -78.30411 | 36240 ft | 357 kts | 227° |
| 2026-05-09 13:58 | 34.67428 | -78.32084 | 35722 ft | 358 kts | 226° |
| 2026-05-09 13:58 | 34.65342 | -78.33772 | 35292 ft | 364 kts | 226° |
| 2026-05-09 13:58 | 34.63215 | -78.35488 | 34782 ft | 368 kts | 225° |
| 2026-05-09 13:59 | 34.61072 | -78.37200 | 34288 ft | 370 kts | 224° |
| 2026-05-09 13:59 | 34.58921 | -78.38909 | 33764 ft | 370 kts | 224° |
| 2026-05-09 13:59 | 34.56772 | -78.40623 | 33305 ft | 370 kts | 223° |
| 2026-05-09 13:59 | 34.54606 | -78.42348 | 32804 ft | 371 kts | 223° |
| 2026-05-09 14:00 | 34.52446 | -78.44081 | 32315 ft | 373 kts | 223° |
| 2026-05-09 14:00 | 34.51740 | -78.44640 | 32147 ft | 374 kts | 223° |
| 2026-05-09 14:00 | 34.48110 | -78.47531 | 31341 ft | 377 kts | 223° |
| 2026-05-09 14:00 | 34.45927 | -78.49296 | 30831 ft | 379 kts | 222° |
| 2026-05-09 14:01 | 34.43695 | -78.51100 | 30308 ft | 383 kts | 221° |
| 2026-05-09 14:01 | 34.41498 | -78.52881 | 29787 ft | 388 kts | 221° |
| 2026-05-09 14:01 | 34.39242 | -78.54691 | 29322 ft | 389 kts | 221° |
| 2026-05-09 14:01 | 34.36975 | -78.56506 | 28780 ft | 392 kts | 221° |
| 2026-05-09 14:02 | 34.34704 | -78.58326 | 28281 ft | 391 kts | 221° |
| 2026-05-09 14:02 | 34.32556 | -78.60239 | 28122 ft | 376 kts | 228° |
| 2026-05-09 14:02 | 34.28698 | -78.64534 | 28016 ft | 376 kts | 230° |
| 2026-05-09 14:03 | 34.24916 | -78.68921 | 27981 ft | 377 kts | 231° |
| 2026-05-09 14:03 | 34.23016 | -78.71157 | 27008 ft | 383 kts | 231° |
| 2026-05-09 14:03 | 34.21148 | -78.73356 | 26871 ft | 366 kts | 231° |
| 2026-05-09 14:04 | 34.19315 | -78.75523 | 26690 ft | 370 kts | 231° |
| 2026-05-09 14:04 | 34.17479 | -78.77704 | 26519 ft | 370 kts | 231° |
| 2026-05-09 14:04 | 34.15647 | -78.79885 | 26347 ft | 370 kts | 232° |
| 2026-05-09 14:04 | 34.13817 | -78.82064 | 26180 ft | 369 kts | 232° |
| 2026-05-09 14:05 | 34.11989 | -78.84243 | 26012 ft | 369 kts | 232° |
| 2026-05-09 14:05 | 34.10166 | -78.86414 | 25849 ft | 368 kts | 232° |
| 2026-05-09 14:05 | 34.08345 | -78.88585 | 25678 ft | 367 kts | 232° |
| 2026-05-09 14:05 | 34.06528 | -78.90749 | 25513 ft | 367 kts | 232° |
| 2026-05-09 14:06 | 34.04717 | -78.92908 | 25343 ft | 366 kts | 232° |
| 2026-05-09 14:06 | 34.02908 | -78.95062 | 25181 ft | 365 kts | 232° |
| 2026-05-09 14:06 | 34.01102 | -78.97211 | 25011 ft | 364 kts | 232° |
| 2026-05-09 14:06 | 33.99301 | -78.99355 | 24850 ft | 364 kts | 232° |
| 2026-05-09 14:07 | 33.97499 | -79.01497 | 24664 ft | 366 kts | 232° |
| 2026-05-09 14:07 | 33.95676 | -79.03666 | 24524 ft | 369 kts | 231° |
| 2026-05-09 14:07 | 33.93852 | -79.05831 | 24341 ft | 368 kts | 231° |
| 2026-05-09 14:07 | 33.92039 | -79.07982 | 24173 ft | 361 kts | 231° |
| 2026-05-09 14:08 | 33.90293 | -79.10042 | 23988 ft | 342 kts | 232° |
| 2026-05-09 14:08 | 33.88661 | -79.11972 | 23839 ft | 325 kts | 232° |
| 2026-05-09 14:08 | 33.87103 | -79.13814 | 23694 ft | 309 kts | 232° |
| 2026-05-09 14:08 | 33.85606 | -79.15583 | 23549 ft | 295 kts | 233° |
| 2026-05-09 14:09 | 33.84179 | -79.17270 | 23408 ft | 281 kts | 233° |
| 2026-05-09 14:09 | 33.82821 | -79.18875 | 23277 ft | 267 kts | 233° |
| 2026-05-09 14:09 | 33.81526 | -79.20405 | 23151 ft | 255 kts | 233° |
| 2026-05-09 14:09 | 33.80282 | -79.21877 | 23015 ft | 248 kts | 234° |
| 2026-05-09 14:10 | 33.77588 | -79.24545 | 22593 ft | 258 kts | 223° |
| 2026-05-09 14:10 | 33.76095 | -79.25692 | 22312 ft | 261 kts | 223° |
| 2026-05-09 14:10 | 33.74558 | -79.26867 | 21924 ft | 263 kts | 221° |
| 2026-05-09 14:11 | 33.73002 | -79.28053 | 21607 ft | 266 kts | 221° |
| 2026-05-09 14:11 | 33.71431 | -79.29250 | 21246 ft | 268 kts | 220° |
| 2026-05-09 14:11 | 33.69854 | -79.30445 | 20888 ft | 268 kts | 220° |
| 2026-05-09 14:11 | 33.68283 | -79.31636 | 20546 ft | 267 kts | 220° |
| 2026-05-09 14:12 | 33.66737 | -79.32807 | 20189 ft | 265 kts | 220° |
| 2026-05-09 14:12 | 33.65183 | -79.33983 | 19845 ft | 263 kts | 220° |
| 2026-05-09 14:12 | 33.63645 | -79.35147 | 19506 ft | 260 kts | 220° |
| 2026-05-09 14:12 | 33.62120 | -79.36301 | 19170 ft | 258 kts | 220° |
| 2026-05-09 14:13 | 33.60610 | -79.37443 | 18838 ft | 256 kts | 220° |
| 2026-05-09 14:14 | 33.50899 | -79.44785 | 16716 ft | 243 kts | 219° |
| 2026-05-09 14:15 | 33.49469 | -79.45857 | 16385 ft | 242 kts | 220° |
| 2026-05-09 14:15 | 33.48044 | -79.46929 | 16094 ft | 242 kts | 220° |
| 2026-05-09 14:15 | 33.46617 | -79.48006 | 15768 ft | 243 kts | 219° |
| 2026-05-09 14:15 | 33.45186 | -79.49085 | 15463 ft | 244 kts | 219° |
| 2026-05-09 14:16 | 33.43744 | -79.50173 | 15112 ft | 245 kts | 219° |
| 2026-05-09 14:16 | 33.42300 | -79.51256 | 14776 ft | 244 kts | 219° |
| 2026-05-09 14:16 | 33.40869 | -79.52328 | 14452 ft | 242 kts | 219° |
| 2026-05-09 14:16 | 33.39449 | -79.53394 | 14139 ft | 240 kts | 219° |
| 2026-05-09 14:17 | 33.38043 | -79.54447 | 13821 ft | 238 kts | 219° |
| 2026-05-09 14:17 | 33.36650 | -79.55492 | 13492 ft | 235 kts | 219° |
| 2026-05-09 14:17 | 33.35269 | -79.56525 | 13181 ft | 232 kts | 219° |
| 2026-05-09 14:17 | 33.33910 | -79.57550 | 12881 ft | 229 kts | 219° |
| 2026-05-09 14:18 | 33.32569 | -79.58571 | 12583 ft | 228 kts | 219° |
| 2026-05-09 14:18 | 33.31233 | -79.59586 | 12282 ft | 228 kts | 219° |
| 2026-05-09 14:18 | 33.29894 | -79.60602 | 11988 ft | 228 kts | 219° |
| 2026-05-09 14:18 | 33.28555 | -79.61619 | 11679 ft | 228 kts | 219° |
| 2026-05-09 14:19 | 33.27213 | -79.62636 | 11380 ft | 228 kts | 219° |
| 2026-05-09 14:19 | 33.25873 | -79.63653 | 11077 ft | 228 kts | 218° |
| 2026-05-09 14:19 | 33.24549 | -79.64655 | 10766 ft | 228 kts | 219° |
| 2026-05-09 14:19 | 33.23215 | -79.65666 | 10473 ft | 226 kts | 219° |
| 2026-05-09 14:20 | 33.21886 | -79.66669 | 10168 ft | 226 kts | 219° |
| 2026-05-09 14:20 | 33.20567 | -79.67667 | 9871 ft | 225 kts | 218° |
| 2026-05-09 14:20 | 33.19219 | -79.68613 | 9561 ft | 224 kts | 217° |
| 2026-05-09 14:21 | 33.16556 | -79.70480 | 8978 ft | 221 kts | 217° |
| 2026-05-09 14:21 | 33.15223 | -79.71424 | 8744 ft | 224 kts | 217° |
| 2026-05-09 14:21 | 33.13853 | -79.72357 | 8532 ft | 230 kts | 216° |
| 2026-05-09 14:21 | 33.12451 | -79.73364 | 8278 ft | 241 kts | 217° |
| 2026-05-09 14:22 | 33.11101 | -79.74576 | 7966 ft | 246 kts | 221° |
| 2026-05-09 14:22 | 33.09572 | -79.75609 | 7553 ft | 258 kts | 211° |
| 2026-05-09 14:22 | 33.07970 | -79.76547 | 7116 ft | 254 kts | 214° |
| 2026-05-09 14:22 | 33.06471 | -79.77593 | 6692 ft | 245 kts | 215° |
| 2026-05-09 14:23 | 33.05033 | -79.78586 | 6362 ft | 233 kts | 215° |
| 2026-05-09 14:23 | 33.03664 | -79.79538 | 6054 ft | 223 kts | 215° |
| 2026-05-09 14:23 | 33.02352 | -79.80454 | 5811 ft | 214 kts | 215° |
| 2026-05-09 14:23 | 33.01100 | -79.81328 | 5546 ft | 204 kts | 215° |
| 2026-05-09 14:24 | 32.99897 | -79.82168 | 5253 ft | 197 kts | 215° |
| 2026-05-09 14:24 | 32.98743 | -79.82975 | 4996 ft | 188 kts | 215° |
| 2026-05-09 14:24 | 32.97650 | -79.83738 | 4771 ft | 181 kts | 216° |
| 2026-05-09 14:24 | 32.96600 | -79.84475 | 4597 ft | 170 kts | 216° |
| 2026-05-09 14:25 | 32.95615 | -79.85163 | 4352 ft | 161 kts | 215° |
| 2026-05-09 14:25 | 32.94676 | -79.85820 | 4101 ft | 153 kts | 215° |
| 2026-05-09 14:25 | 32.93775 | -79.86450 | 3900 ft | 147 kts | 214° |
| 2026-05-09 14:25 | 32.92904 | -79.87061 | 3721 ft | 144 kts | 214° |
| 2026-05-09 14:26 | 32.92044 | -79.87665 | 3539 ft | 143 kts | 214° |
| 2026-05-09 14:26 | 32.91183 | -79.88261 | 3357 ft | 143 kts | 213° |
| 2026-05-09 14:26 | 32.90332 | -79.88856 | 3225 ft | 141 kts | 212° |
| 2026-05-09 14:26 | 32.89483 | -79.89450 | 3121 ft | 142 kts | 213° |
| 2026-05-09 14:27 | 32.88648 | -79.90050 | 3181 ft | 139 kts | 213° |
| 2026-05-09 14:27 | 32.87779 | -79.90668 | 2984 ft | 148 kts | 213° |
| 2026-05-09 14:27 | 32.86928 | -79.91269 | 2969 ft | 145 kts | 213° |
| 2026-05-09 14:27 | 32.86021 | -79.91921 | 2561 ft | 159 kts | 213° |
| 2026-05-09 14:28 | 32.85086 | -79.92605 | 2286 ft | 155 kts | 214° |
| 2026-05-09 14:28 | 32.84319 | -79.93447 | 2079 ft | 146 kts | 230° |
| 2026-05-09 14:28 | 32.83804 | -79.94455 | 1967 ft | 140 kts | 244° |
| 2026-05-09 14:28 | 32.83512 | -79.95558 | 1770 ft | 140 kts | 255° |
| 2026-05-09 14:29 | 32.83448 | -79.96701 | 1624 ft | 142 kts | 270° |
| 2026-05-09 14:29 | 32.83643 | -79.97866 | 1408 ft | 143 kts | 285° |
| 2026-05-09 14:29 | 32.84064 | -79.98864 | 1336 ft | 135 kts | 300° |
| 2026-05-09 14:29 | 32.84671 | -79.99719 | 1151 ft | 135 kts | 313° |
| 2026-05-09 14:30 | 32.85427 | -80.00404 | 995 ft | 138 kts | 324° |
| 2026-05-09 14:30 | 32.86255 | -80.00996 | 821 ft | 139 kts | 327° |
| 2026-05-09 14:30 | 32.87066 | -80.01608 | 605 ft | 136 kts | 326° |
| 2026-05-09 14:30 | 32.87860 | -80.02210 | 393 ft | 135 kts | 327° |
| 2026-05-09 14:31 | 32.88649 | -80.02800 | 212 ft | 135 kts | 327° |
| 2026-05-09 14:31 | 32.89436 | -80.03395 | 56 ft | 130 kts | 327° |
| 2026-05-09 14:31 | 32.90089 | -80.03893 | 56 ft | 87 kts | 327° |
| 2026-05-09 14:31 | 32.90489 | -80.04194 | 52 ft | 58 kts | 327° |
| 2026-05-09 14:32 | 32.90775 | -80.04406 | 57 ft | 22 kts | 345° |
| 2026-05-09 14:32 | 32.90812 | -80.04290 | 56 ft | 21 kts | 127° |
| 2026-05-09 14:32 | 32.90702 | -80.04157 | 57 ft | 24 kts | 136° |
| 2026-05-09 14:32 | 32.90572 | -80.04014 | 53 ft | 27 kts | 138° |
| 2026-05-09 14:33 | 32.90429 | -80.03862 | 59 ft | 28 kts | 137° |
| 2026-05-09 14:33 | 32.90281 | -80.03701 | 58 ft | 29 kts | 138° |
| 2026-05-09 14:33 | 32.90103 | -80.03575 | 55 ft | 32 kts | 170° |
| 2026-05-09 14:33 | 32.89864 | -80.03573 | 50 ft | 36 kts | 181° |
| 2026-05-09 14:34 | 32.89600 | -80.03580 | 45 ft | 39 kts | 182° |
| 2026-05-09 14:34 | 32.89321 | -80.03590 | 46 ft | 41 kts | 181° |
| 2026-05-09 14:34 | 32.89043 | -80.03602 | 45 ft | 33 kts | 182° |
| 2026-05-09 14:34 | 32.88803 | -80.03636 | 37 ft | 34 kts | 188° |
| 2026-05-09 14:35 | 32.88645 | -80.03660 | 37 ft | 16 kts | 187° |
| 2026-05-09 14:35 | 32.88594 | -80.03668 | 37 ft | 4 kts | 197° |
| 2026-05-09 14:35 | 32.88560 | -80.03654 | 36 ft | 7 kts | 146° |
| 2026-05-09 14:35 | 32.88540 | -80.03637 | 36 ft | 0 kts | 144° |